Time;durP1;ratioP1;P1;durP2;ratioP2;P2;SDS_P1;SDS_P2;PMS_P1;PMS_P2;Temp;Humidity;BMP_temperature;BMP_pressure;BME280_temperature;BME280_humidity;BME280_pressure;Samples;Min_cycle;Max_cycle;Signal;HPM_P1;HPM_P2
2022/09/03 00:08:02;;;;;;;2.5;5.6;;;;;;;11.3;100;98810;;;;
2022/09/03 00:18:02;;;;;;;2.5;5.6;;;;;;;11.2;100;98800;;;;
2022/09/03 00:28:02;;;;;;;2.8;7.6;;;;;;;11.1;100;98800;;;;
2022/09/03 00:39:02;;;;;;;2.8;7.6;;;;;;;10.9;100;98790;;;;
2022/09/03 00:50:03;;;;;;;2.8;7.6;;;;;;;10.8;100;98790;;;;
2022/09/03 01:00:02;;;;;;;2.3;4.9;;;;;;;10.6;100;98790;;;;
2022/09/03 01:10:02;;;;;;;2.3;4.9;;;;;;;10.5;100;98780;;;;
2022/09/03 01:21:02;;;;;;;2.3;4.9;;;;;;;10.3;100;98780;;;;
2022/09/03 01:31:02;;;;;;;2.4;5.7;;;;;;;10.1;100;98780;;;;
2022/09/03 01:42:17;;;;;;;2.4;5.7;;;;;;;10.1;100;98780;;;;
2022/09/03 01:52:02;;;;;;;2.4;5.7;;;;;;;10;100;98780;;;;
2022/09/03 02:03:04;;;;;;;2;4.3;;;;;;;10;100;98780;;;;
2022/09/03 02:14:02;;;;;;;2;4.3;;;;;;;10;100;98800;;;;
2022/09/03 02:25:02;;;;;;;2;4.3;;;;;;;9.9;100;98800;;;;
2022/09/03 02:36:02;;;;;;;1.9;4;;;;;;;9.7;100;98790;;;;
2022/09/03 02:47:02;;;;;;;1.9;4;;;;;;;9.4;100;98800;;;;
2022/09/03 02:57:02;;;;;;;2.1;4.4;;;;;;;9.3;100;98810;;;;
2022/09/03 03:07:02;;;;;;;2.1;4.4;;;;;;;9.1;100;98810;;;;
2022/09/03 03:18:02;;;;;;;2.1;4.4;;;;;;;9;100;98820;;;;
2022/09/03 03:28:03;;;;;;;1.7;5.2;;;;;;;8.9;100;98800;;;;
2022/09/03 03:38:02;;;;;;;1.7;5.2;;;;;;;8.8;100;98810;;;;
2022/09/03 03:49:02;;;;;;;1.7;5.2;;;;;;;8.8;100;98810;;;;
2022/09/03 04:00:02;;;;;;;1.7;4.4;;;;;;;8.7;100;98810;;;;
2022/09/03 04:10:02;;;;;;;1.7;4.4;;;;;;;8.8;100;98810;;;;
2022/09/03 04:21:03;;;;;;;1.7;4.4;;;;;;;9.2;100;98800;;;;
2022/09/03 04:33:06;;;;;;;2.2;4.6;;;;;;;9.4;100;98800;;;;
2022/09/03 04:43:02;;;;;;;2.2;4.6;;;;;;;9.5;100;98820;;;;
2022/09/03 04:54:02;;;;;;;2.2;4.6;;;;;;;9.9;100;98810;;;;
2022/09/03 05:04:02;;;;;;;2.9;5.2;;;;;;;10.2;100;98820;;;;
2022/09/03 05:15:04;;;;;;;2.9;5.2;;;;;;;10.7;100;98830;;;;
2022/09/03 05:26:02;;;;;;;2.9;5.2;;;;;;;10.8;100;98840;;;;
2022/09/03 05:36:02;;;;;;;2.9;5.7;;;;;;;11.5;100;98830;;;;
2022/09/03 05:46:02;;;;;;;2.9;5.7;;;;;;;11.4;100;98820;;;;
2022/09/03 05:57:02;;;;;;;3.8;7.1;;;;;;;11.6;100;98830;;;;
2022/09/03 06:08:02;;;;;;;3.8;7.1;;;;;;;11.8;100;98840;;;;
2022/09/03 06:19:02;;;;;;;3.8;7.1;;;;;;;12;100;98840;;;;
2022/09/03 06:29:02;;;;;;;3.8;8.4;;;;;;;12.6;100;98850;;;;
2022/09/03 06:40:02;;;;;;;3.8;8.4;;;;;;;13.3;100;98840;;;;
2022/09/03 06:50:02;;;;;;;3.8;8.4;;;;;;;13.7;100;98840;;;;
2022/09/03 07:00:03;;;;;;;4.1;8;;;;;;;13.9;100;98850;;;;
2022/09/03 07:10:02;;;;;;;4.1;8;;;;;;;13.8;100;98870;;;;
2022/09/03 07:21:02;;;;;;;4.1;8;;;;;;;14.2;100;98880;;;;
2022/09/03 07:31:02;;;;;;;3.9;7.3;;;;;;;14.4;100;98880;;;;
2022/09/03 07:42:02;;;;;;;3.9;7.3;;;;;;;14.4;100;98860;;;;
2022/09/03 07:52:02;;;;;;;3.9;7.3;;;;;;;15.4;100;98880;;;;
2022/09/03 08:02:04;;;;;;;3.7;7.7;;;;;;;15.7;100;98890;;;;
2022/09/03 08:13:04;;;;;;;3.7;7.7;;;;;;;15.9;100;98880;;;;
2022/09/03 08:23:02;;;;;;;3.7;7.7;;;;;;;15.5;100;98880;;;;
2022/09/03 08:34:05;;;;;;;3.3;7.3;;;;;;;16.5;100;98890;;;;
2022/09/03 08:45:02;;;;;;;3.3;7.3;;;;;;;17.3;100;98890;;;;
2022/09/03 08:56:02;;;;;;;3.3;7.3;;;;;;;16.8;100;98890;;;;
2022/09/03 09:07:02;;;;;;;3.1;4.8;;;;;;;16.9;100;98880;;;;
2022/09/03 09:17:02;;;;;;;3.1;4.8;;;;;;;16.9;100;98890;;;;
2022/09/03 09:28:02;;;;;;;2.9;5.4;;;;;;;16.5;100;98890;;;;
2022/09/03 09:38:02;;;;;;;2.9;5.4;;;;;;;16.9;100;98900;;;;
2022/09/03 09:49:02;;;;;;;2.9;5.4;;;;;;;17.6;100;98890;;;;
2022/09/03 10:00:03;;;;;;;3.6;6.2;;;;;;;17.8;100;98890;;;;
2022/09/03 10:11:02;;;;;;;3.6;6.2;;;;;;;18.2;100;98880;;;;
2022/09/03 10:21:03;;;;;;;3.6;6.2;;;;;;;17.7;100;98890;;;;
2022/09/03 10:32:02;;;;;;;3.4;6.4;;;;;;;17.2;100;98890;;;;
2022/09/03 10:43:03;;;;;;;3.4;6.4;;;;;;;17.4;100;98900;;;;
2022/09/03 10:54:02;;;;;;;3.4;6.4;;;;;;;17.7;100;98900;;;;
2022/09/03 11:05:02;;;;;;;3.2;6.2;;;;;;;17.4;100;98890;;;;
2022/09/03 11:16:03;;;;;;;3.2;6.2;;;;;;;17.7;100;98890;;;;
2022/09/03 11:26:02;;;;;;;3.2;6.2;;;;;;;17.7;100;98890;;;;
2022/09/03 11:36:03;;;;;;;3.3;7.2;;;;;;;18.4;100;98860;;;;
2022/09/03 11:46:02;;;;;;;3.3;7.2;;;;;;;18.8;100;98860;;;;
2022/09/03 11:57:02;;;;;;;2.8;5.2;;;;;;;18.2;100;98860;;;;
2022/09/03 12:08:02;;;;;;;2.8;5.2;;;;;;;18.8;100;98840;;;;
2022/09/03 12:18:31;;;;;;;2.8;5.2;;;;;;;18.4;100;98850;;;;
2022/09/03 12:29:04;;;;;;;2.8;5.1;;;;;;;18.3;100;98840;;;;
2022/09/03 12:39:02;;;;;;;2.8;5.1;;;;;;;18.5;100;98830;;;;
2022/09/03 12:50:02;;;;;;;2.8;5.1;;;;;;;18.4;100;98810;;;;
2022/09/03 13:00:02;;;;;;;2.9;6.5;;;;;;;18.2;100;98820;;;;
2022/09/03 13:11:03;;;;;;;2.9;6.5;;;;;;;18.6;100;98820;;;;
2022/09/03 13:22:02;;;;;;;2.9;6.5;;;;;;;18.5;100;98820;;;;
2022/09/03 13:33:02;;;;;;;3.3;6.9;;;;;;;18.5;100;98820;;;;
2022/09/03 13:43:02;;;;;;;3.3;6.9;;;;;;;18.9;100;98810;;;;
2022/09/03 13:53:02;;;;;;;3.3;6.9;;;;;;;18.6;100;98820;;;;
2022/09/03 14:04:02;;;;;;;2.7;4.6;;;;;;;18.8;100;98810;;;;
2022/09/03 14:14:02;;;;;;;2.7;4.6;;;;;;;18.9;100;98820;;;;
2022/09/03 14:25:02;;;;;;;2.7;4.6;;;;;;;18.8;100;98810;;;;
2022/09/03 14:36:02;;;;;;;3;5.8;;;;;;;18.6;100;98820;;;;
2022/09/03 14:47:02;;;;;;;3;5.8;;;;;;;18.5;100;98820;;;;
2022/09/03 14:58:02;;;;;;;3.7;7.8;;;;;;;17.7;100;98820;;;;
2022/09/03 15:08:02;;;;;;;3.7;7.8;;;;;;;18;100;98820;;;;
2022/09/03 15:19:03;;;;;;;3.7;7.8;;;;;;;17.8;100;98820;;;;
2022/09/03 15:29:02;;;;;;;3.6;7.5;;;;;;;17.9;100;98810;;;;
2022/09/03 15:40:02;;;;;;;3.6;7.5;;;;;;;17.6;100;98810;;;;
2022/09/03 15:51:02;;;;;;;3.6;7.5;;;;;;;17.4;100;98810;;;;
2022/09/03 16:01:03;;;;;;;4.2;5.9;;;;;;;17.3;100;98800;;;;
2022/09/03 16:12:02;;;;;;;4.2;5.9;;;;;;;17.2;100;98800;;;;
2022/09/03 16:23:03;;;;;;;4.2;5.9;;;;;;;18.3;100;98790;;;;
2022/09/03 16:33:02;;;;;;;4.5;8.3;;;;;;;17.7;100;98800;;;;
2022/09/03 16:44:02;;;;;;;4.5;8.3;;;;;;;17.6;100;98790;;;;
2022/09/03 16:55:03;;;;;;;4.5;8.3;;;;;;;17.2;100;98800;;;;
2022/09/03 17:05:02;;;;;;;5;8.5;;;;;;;17;100;98810;;;;
2022/09/03 17:15:02;;;;;;;5;8.5;;;;;;;17;100;98820;;;;
2022/09/03 17:25:04;;;;;;;5;8.5;;;;;;;16.7;100;98810;;;;
2022/09/03 17:35:02;;;;;;;5.1;9.5;;;;;;;16;100;98810;;;;
2022/09/03 17:46:02;;;;;;;5.1;9.5;;;;;;;15.7;100;98820;;;;
2022/09/03 17:56:02;;;;;;;5.1;9.5;;;;;;;15.6;100;98830;;;;
2022/09/03 18:06:03;;;;;;;5.7;9.3;;;;;;;15.2;100;98830;;;;
2022/09/03 18:17:02;;;;;;;5.7;9.3;;;;;;;15;100;98830;;;;
2022/09/03 20:13:02;;;;;;;8.7;11.2;;;;;;;13.1;100;98880;;;;
2022/09/03 20:23:02;;;;;;;8.7;11.2;;;;;;;12.9;100;98880;;;;
2022/09/03 20:33:02;;;;;;;6.6;10.8;;;;;;;12.8;100;98890;;;;
2022/09/03 20:44:02;;;;;;;6.6;10.8;;;;;;;12.7;100;98890;;;;
2022/09/03 20:55:02;;;;;;;6.6;10.8;;;;;;;12.6;100;98900;;;;
2022/09/03 21:05:05;;;;;;;8.9;15.6;;;;;;;12.5;100;98900;;;;
2022/09/03 21:15:02;;;;;;;8.9;15.6;;;;;;;12.3;100;98910;;;;
2022/09/03 21:26:03;;;;;;;8.9;15.6;;;;;;;12.2;100;98910;;;;
2022/09/03 21:36:02;;;;;;;6.8;9.9;;;;;;;12.2;100;98900;;;;
2022/09/03 21:47:02;;;;;;;6.8;9.9;;;;;;;12.2;100;98910;;;;
2022/09/03 21:58:02;;;;;;;5.1;8.8;;;;;;;12.1;100;98900;;;;
2022/09/03 22:08:02;;;;;;;5.1;8.8;;;;;;;12;100;98910;;;;
2022/09/03 22:18:02;;;;;;;5.1;8.8;;;;;;;11.8;100;98900;;;;
2022/09/03 22:28:02;;;;;;;4.9;7.7;;;;;;;11.6;100;98900;;;;
2022/09/03 22:39:02;;;;;;;4.9;7.7;;;;;;;11.5;100;98910;;;;
2022/09/03 22:50:02;;;;;;;4.9;7.7;;;;;;;11.4;100;98900;;;;
2022/09/03 23:00:02;;;;;;;5.1;8.4;;;;;;;11.3;100;98900;;;;
2022/09/03 23:10:02;;;;;;;5.1;8.4;;;;;;;11.1;100;98900;;;;
2022/09/03 23:21:04;;;;;;;5.1;8.4;;;;;;;10.9;100;98900;;;;
2022/09/03 23:32:03;;;;;;;4.8;6.8;;;;;;;10.9;100;98900;;;;
2022/09/03 23:43:02;;;;;;;4.8;6.8;;;;;;;10.7;100;98900;;;;
2022/09/03 23:54:02;;;;;;;4.8;6.8;;;;;;;10.8;100;98900;;;;
